sensor_id;sensor_type;location;lat;lon;timestamp;P1;durP1;ratioP1;P2;durP2;ratioP2
6434;SDS011;3250;42.694;23.278;2023-02-28T00:02:17;16.08;;;9.95;;
6434;SDS011;3250;42.694;23.278;2023-02-28T00:04:42;14.87;;;9.40;;
6434;SDS011;3250;42.694;23.278;2023-02-28T00:07:08;17.90;;;9.65;;
6434;SDS011;3250;42.694;23.278;2023-02-28T00:09:34;20.42;;;10.52;;
6434;SDS011;3250;42.694;23.278;2023-02-28T00:12:00;16.75;;;10.98;;
6434;SDS011;3250;42.694;23.278;2023-02-28T00:14:38;17.27;;;9.50;;
6434;SDS011;3250;42.694;23.278;2023-02-28T00:17:03;16.20;;;8.43;;
6434;SDS011;3250;42.694;23.278;2023-02-28T00:19:29;17.77;;;8.97;;
6434;SDS011;3250;42.694;23.278;2023-02-28T00:21:54;14.30;;;8.87;;
6434;SDS011;3250;42.694;23.278;2023-02-28T00:24:20;14.53;;;9.53;;
6434;SDS011;3250;42.694;23.278;2023-02-28T00:26:45;13.10;;;8.87;;
6434;SDS011;3250;42.694;23.278;2023-02-28T00:29:11;14.87;;;8.43;;
6434;SDS011;3250;42.694;23.278;2023-02-28T00:31:36;15.73;;;10.20;;
6434;SDS011;3250;42.694;23.278;2023-02-28T00:34:02;18.03;;;8.63;;
6434;SDS011;3250;42.694;23.278;2023-02-28T00:36:27;13.77;;;8.83;;
6434;SDS011;3250;42.694;23.278;2023-02-28T00:38:52;12.63;;;8.43;;
6434;SDS011;3250;42.694;23.278;2023-02-28T00:41:18;13.80;;;7.80;;
6434;SDS011;3250;42.694;23.278;2023-02-28T00:43:43;17.50;;;9.10;;
6434;SDS011;3250;42.694;23.278;2023-02-28T00:46:09;17.57;;;10.00;;
6434;SDS011;3250;42.694;23.278;2023-02-28T00:48:34;21.25;;;9.73;;
6434;SDS011;3250;42.694;23.278;2023-02-28T00:51:00;18.65;;;11.32;;
6434;SDS011;3250;42.694;23.278;2023-02-28T00:53:26;20.63;;;12.20;;
6434;SDS011;3250;42.694;23.278;2023-02-28T00:55:51;20.67;;;9.90;;
6434;SDS011;3250;42.694;23.278;2023-02-28T00:58:16;19.93;;;10.17;;
6434;SDS011;3250;42.694;23.278;2023-02-28T01:00:42;16.53;;;10.00;;
6434;SDS011;3250;42.694;23.278;2023-02-28T01:03:07;17.80;;;9.80;;
6434;SDS011;3250;42.694;23.278;2023-02-28T01:05:33;16.00;;;9.97;;
6434;SDS011;3250;42.694;23.278;2023-02-28T01:07:58;17.50;;;9.23;;
6434;SDS011;3250;42.694;23.278;2023-02-28T01:10:24;21.63;;;12.70;;
6434;SDS011;3250;42.694;23.278;2023-02-28T01:12:50;21.00;;;11.70;;
6434;SDS011;3250;42.694;23.278;2023-02-28T01:15:16;17.37;;;10.27;;
6434;SDS011;3250;42.694;23.278;2023-02-28T01:17:41;19.97;;;12.77;;
6434;SDS011;3250;42.694;23.278;2023-02-28T01:20:07;20.27;;;11.90;;
6434;SDS011;3250;42.694;23.278;2023-02-28T01:22:34;19.80;;;11.00;;
6434;SDS011;3250;42.694;23.278;2023-02-28T01:24:59;18.27;;;10.87;;
6434;SDS011;3250;42.694;23.278;2023-02-28T01:27:25;19.03;;;10.00;;
6434;SDS011;3250;42.694;23.278;2023-02-28T01:29:51;22.70;;;9.50;;
6434;SDS011;3250;42.694;23.278;2023-02-28T01:32:17;18.70;;;10.40;;
6434;SDS011;3250;42.694;23.278;2023-02-28T01:34:42;17.98;;;10.35;;
6434;SDS011;3250;42.694;23.278;2023-02-28T01:37:07;18.10;;;9.67;;
6434;SDS011;3250;42.694;23.278;2023-02-28T01:39:33;20.97;;;9.80;;
6434;SDS011;3250;42.694;23.278;2023-02-28T01:41:58;18.33;;;10.30;;
6434;SDS011;3250;42.694;23.278;2023-02-28T01:47:30;21.33;;;11.97;;
6434;SDS011;3250;42.694;23.278;2023-02-28T01:50:00;16.77;;;9.63;;
6434;SDS011;3250;42.694;23.278;2023-02-28T01:52:29;19.25;;;11.60;;
6434;SDS011;3250;42.694;23.278;2023-02-28T01:54:56;19.83;;;10.77;;
6434;SDS011;3250;42.694;23.278;2023-02-28T01:57:29;19.37;;;10.33;;
6434;SDS011;3250;42.694;23.278;2023-02-28T02:00:04;19.50;;;10.70;;
6434;SDS011;3250;42.694;23.278;2023-02-28T02:02:38;20.40;;;10.97;;
6434;SDS011;3250;42.694;23.278;2023-02-28T02:05:07;22.38;;;12.93;;
6434;SDS011;3250;42.694;23.278;2023-02-28T02:07:36;27.17;;;12.10;;
6434;SDS011;3250;42.694;23.278;2023-02-28T02:10:16;24.03;;;11.63;;
6434;SDS011;3250;42.694;23.278;2023-02-28T02:16:02;24.43;;;11.30;;
6434;SDS011;3250;42.694;23.278;2023-02-28T02:29:55;42.50;;;19.47;;
6434;SDS011;3250;42.694;23.278;2023-02-28T02:38:23;28.10;;;13.23;;
6434;SDS011;3250;42.694;23.278;2023-02-28T02:46:04;34.58;;;17.85;;
6434;SDS011;3250;42.694;23.278;2023-02-28T02:48:35;36.13;;;18.40;;
6434;SDS011;3250;42.694;23.278;2023-02-28T02:51:04;35.80;;;19.40;;
6434;SDS011;3250;42.694;23.278;2023-02-28T02:53:38;26.17;;;14.80;;
6434;SDS011;3250;42.694;23.278;2023-02-28T02:56:09;33.72;;;17.15;;
6434;SDS011;3250;42.694;23.278;2023-02-28T02:58:38;32.13;;;15.73;;
6434;SDS011;3250;42.694;23.278;2023-02-28T03:01:07;44.90;;;19.88;;
6434;SDS011;3250;42.694;23.278;2023-02-28T03:03:36;45.63;;;19.10;;
6434;SDS011;3250;42.694;23.278;2023-02-28T03:06:02;45.07;;;19.27;;
6434;SDS011;3250;42.694;23.278;2023-02-28T03:08:29;38.63;;;18.07;;
6434;SDS011;3250;42.694;23.278;2023-02-28T03:11:01;32.43;;;15.37;;
6434;SDS011;3250;42.694;23.278;2023-02-28T03:13:52;30.13;;;13.47;;
6434;SDS011;3250;42.694;23.278;2023-02-28T03:19:15;33.77;;;13.63;;
6434;SDS011;3250;42.694;23.278;2023-02-28T03:21:46;30.43;;;13.67;;
6434;SDS011;3250;42.694;23.278;2023-02-28T03:27:11;37.43;;;15.70;;
6434;SDS011;3250;42.694;23.278;2023-02-28T03:29:47;27.60;;;12.37;;
6434;SDS011;3250;42.694;23.278;2023-02-28T03:35:32;28.10;;;13.03;;
6434;SDS011;3250;42.694;23.278;2023-02-28T03:40:48;33.73;;;14.23;;
6434;SDS011;3250;42.694;23.278;2023-02-28T03:43:22;29.90;;;13.37;;
6434;SDS011;3250;42.694;23.278;2023-02-28T03:45:53;32.83;;;13.63;;
6434;SDS011;3250;42.694;23.278;2023-02-28T03:48:25;30.27;;;12.37;;
6434;SDS011;3250;42.694;23.278;2023-02-28T03:50:57;36.43;;;14.83;;
6434;SDS011;3250;42.694;23.278;2023-02-28T03:53:26;30.47;;;13.37;;
6434;SDS011;3250;42.694;23.278;2023-02-28T03:55:56;33.07;;;13.93;;
6434;SDS011;3250;42.694;23.278;2023-02-28T04:01:09;33.73;;;13.93;;
6434;SDS011;3250;42.694;23.278;2023-02-28T04:03:40;33.03;;;15.07;;
6434;SDS011;3250;42.694;23.278;2023-02-28T04:06:06;30.23;;;14.53;;
6434;SDS011;3250;42.694;23.278;2023-02-28T04:08:38;36.60;;;15.60;;
6434;SDS011;3250;42.694;23.278;2023-02-28T04:11:06;32.77;;;13.63;;
6434;SDS011;3250;42.694;23.278;2023-02-28T04:13:41;34.50;;;17.33;;
6434;SDS011;3250;42.694;23.278;2023-02-28T04:16:07;34.80;;;15.60;;
6434;SDS011;3250;42.694;23.278;2023-02-28T04:18:40;37.10;;;15.10;;
6434;SDS011;3250;42.694;23.278;2023-02-28T04:21:08;27.10;;;12.97;;
6434;SDS011;3250;42.694;23.278;2023-02-28T04:23:34;26.43;;;13.13;;
6434;SDS011;3250;42.694;23.278;2023-02-28T04:26:00;26.87;;;11.53;;
6434;SDS011;3250;42.694;23.278;2023-02-28T04:28:25;24.67;;;11.47;;
6434;SDS011;3250;42.694;23.278;2023-02-28T04:30:54;22.43;;;11.40;;
6434;SDS011;3250;42.694;23.278;2023-02-28T04:33:28;21.80;;;10.93;;
6434;SDS011;3250;42.694;23.278;2023-02-28T04:36:01;22.57;;;10.90;;
6434;SDS011;3250;42.694;23.278;2023-02-28T04:38:29;21.90;;;11.53;;
6434;SDS011;3250;42.694;23.278;2023-02-28T04:40:58;25.03;;;10.80;;
6434;SDS011;3250;42.694;23.278;2023-02-28T04:43:25;18.20;;;9.97;;
6434;SDS011;3250;42.694;23.278;2023-02-28T04:45:54;21.70;;;10.97;;
6434;SDS011;3250;42.694;23.278;2023-02-28T04:48:24;24.97;;;13.70;;
6434;SDS011;3250;42.694;23.278;2023-02-28T04:50:52;22.67;;;11.37;;
6434;SDS011;3250;42.694;23.278;2023-02-28T04:53:17;23.27;;;12.03;;
6434;SDS011;3250;42.694;23.278;2023-02-28T04:55:43;20.27;;;11.17;;
6434;SDS011;3250;42.694;23.278;2023-02-28T04:58:09;25.25;;;13.90;;
6434;SDS011;3250;42.694;23.278;2023-02-28T05:00:35;23.30;;;12.17;;
6434;SDS011;3250;42.694;23.278;2023-02-28T05:03:01;25.33;;;12.27;;
6434;SDS011;3250;42.694;23.278;2023-02-28T05:05:26;25.00;;;12.40;;
6434;SDS011;3250;42.694;23.278;2023-02-28T05:07:52;27.20;;;12.90;;
6434;SDS011;3250;42.694;23.278;2023-02-28T05:10:18;26.17;;;12.20;;
6434;SDS011;3250;42.694;23.278;2023-02-28T05:12:44;34.53;;;16.23;;
6434;SDS011;3250;42.694;23.278;2023-02-28T05:15:12;33.43;;;15.43;;
6434;SDS011;3250;42.694;23.278;2023-02-28T05:17:39;28.07;;;13.93;;
6434;SDS011;3250;42.694;23.278;2023-02-28T05:20:04;29.30;;;14.30;;
6434;SDS011;3250;42.694;23.278;2023-02-28T05:22:30;30.80;;;14.80;;
6434;SDS011;3250;42.694;23.278;2023-02-28T05:24:56;33.60;;;13.60;;
6434;SDS011;3250;42.694;23.278;2023-02-28T05:27:22;35.87;;;15.10;;
6434;SDS011;3250;42.694;23.278;2023-02-28T05:29:48;40.25;;;17.33;;
6434;SDS011;3250;42.694;23.278;2023-02-28T05:32:13;37.53;;;15.63;;
6434;SDS011;3250;42.694;23.278;2023-02-28T05:34:40;33.97;;;15.87;;
6434;SDS011;3250;42.694;23.278;2023-02-28T05:37:10;32.47;;;15.47;;
6434;SDS011;3250;42.694;23.278;2023-02-28T05:39:37;40.80;;;18.63;;
6434;SDS011;3250;42.694;23.278;2023-02-28T05:42:03;40.40;;;16.47;;
6434;SDS011;3250;42.694;23.278;2023-02-28T05:44:29;42.00;;;18.97;;
6434;SDS011;3250;42.694;23.278;2023-02-28T05:46:54;40.13;;;18.30;;
6434;SDS011;3250;42.694;23.278;2023-02-28T05:49:20;40.53;;;17.77;;
6434;SDS011;3250;42.694;23.278;2023-02-28T05:51:45;41.43;;;20.60;;
6434;SDS011;3250;42.694;23.278;2023-02-28T05:54:11;43.37;;;15.93;;
6434;SDS011;3250;42.694;23.278;2023-02-28T05:56:36;38.13;;;15.03;;
6434;SDS011;3250;42.694;23.278;2023-02-28T05:59:04;36.10;;;16.30;;
6434;SDS011;3250;42.694;23.278;2023-02-28T06:01:32;33.40;;;15.30;;
6434;SDS011;3250;42.694;23.278;2023-02-28T06:03:59;28.80;;;14.33;;
6434;SDS011;3250;42.694;23.278;2023-02-28T06:06:26;33.00;;;14.87;;
6434;SDS011;3250;42.694;23.278;2023-02-28T06:08:51;35.33;;;16.27;;
6434;SDS011;3250;42.694;23.278;2023-02-28T06:11:17;40.80;;;17.20;;
6434;SDS011;3250;42.694;23.278;2023-02-28T06:13:44;36.63;;;16.70;;
6434;SDS011;3250;42.694;23.278;2023-02-28T06:16:10;34.23;;;16.73;;
6434;SDS011;3250;42.694;23.278;2023-02-28T06:18:36;35.77;;;15.93;;
6434;SDS011;3250;42.694;23.278;2023-02-28T06:21:01;31.43;;;15.80;;
6434;SDS011;3250;42.694;23.278;2023-02-28T06:23:27;36.17;;;16.27;;
6434;SDS011;3250;42.694;23.278;2023-02-28T06:25:53;35.37;;;16.73;;
6434;SDS011;3250;42.694;23.278;2023-02-28T06:28:18;32.87;;;17.03;;
6434;SDS011;3250;42.694;23.278;2023-02-28T06:30:44;39.67;;;18.00;;
6434;SDS011;3250;42.694;23.278;2023-02-28T06:33:09;38.37;;;16.43;;
6434;SDS011;3250;42.694;23.278;2023-02-28T06:35:35;33.10;;;17.27;;
6434;SDS011;3250;42.694;23.278;2023-02-28T06:38:00;36.87;;;17.77;;
6434;SDS011;3250;42.694;23.278;2023-02-28T06:40:25;39.77;;;17.60;;
6434;SDS011;3250;42.694;23.278;2023-02-28T06:42:51;34.83;;;17.67;;
6434;SDS011;3250;42.694;23.278;2023-02-28T06:45:17;38.27;;;18.43;;
6434;SDS011;3250;42.694;23.278;2023-02-28T06:47:42;42.50;;;17.47;;
6434;SDS011;3250;42.694;23.278;2023-02-28T06:50:11;49.33;;;19.43;;
6434;SDS011;3250;42.694;23.278;2023-02-28T06:52:38;40.33;;;17.13;;
6434;SDS011;3250;42.694;23.278;2023-02-28T06:55:04;46.80;;;19.13;;
6434;SDS011;3250;42.694;23.278;2023-02-28T06:57:31;46.80;;;18.70;;
6434;SDS011;3250;42.694;23.278;2023-02-28T06:59:58;42.30;;;18.90;;
6434;SDS011;3250;42.694;23.278;2023-02-28T07:02:25;42.73;;;18.50;;
6434;SDS011;3250;42.694;23.278;2023-02-28T07:04:51;36.83;;;17.83;;
6434;SDS011;3250;42.694;23.278;2023-02-28T07:07:16;40.27;;;20.47;;
6434;SDS011;3250;42.694;23.278;2023-02-28T07:09:41;42.40;;;18.47;;
6434;SDS011;3250;42.694;23.278;2023-02-28T07:12:07;46.57;;;20.90;;
6434;SDS011;3250;42.694;23.278;2023-02-28T07:14:32;46.73;;;21.17;;
6434;SDS011;3250;42.694;23.278;2023-02-28T07:16:57;47.87;;;20.70;;
6434;SDS011;3250;42.694;23.278;2023-02-28T07:19:24;42.93;;;18.43;;
6434;SDS011;3250;42.694;23.278;2023-02-28T07:21:49;41.27;;;20.17;;
6434;SDS011;3250;42.694;23.278;2023-02-28T07:24:15;50.47;;;21.77;;
6434;SDS011;3250;42.694;23.278;2023-02-28T07:26:42;49.17;;;21.93;;
6434;SDS011;3250;42.694;23.278;2023-02-28T07:29:08;47.03;;;23.13;;
6434;SDS011;3250;42.694;23.278;2023-02-28T07:31:33;47.97;;;21.13;;
6434;SDS011;3250;42.694;23.278;2023-02-28T07:33:59;46.70;;;19.70;;
6434;SDS011;3250;42.694;23.278;2023-02-28T07:36:24;46.30;;;21.70;;
6434;SDS011;3250;42.694;23.278;2023-02-28T07:38:49;51.83;;;24.43;;
6434;SDS011;3250;42.694;23.278;2023-02-28T07:41:15;45.57;;;22.50;;
6434;SDS011;3250;42.694;23.278;2023-02-28T07:43:41;49.00;;;20.87;;
6434;SDS011;3250;42.694;23.278;2023-02-28T07:46:10;48.50;;;24.70;;
6434;SDS011;3250;42.694;23.278;2023-02-28T07:48:40;44.40;;;21.13;;
6434;SDS011;3250;42.694;23.278;2023-02-28T07:51:05;45.80;;;19.90;;
6434;SDS011;3250;42.694;23.278;2023-02-28T07:53:31;50.33;;;23.27;;
6434;SDS011;3250;42.694;23.278;2023-02-28T07:55:57;53.90;;;26.03;;
6434;SDS011;3250;42.694;23.278;2023-02-28T07:58:24;56.30;;;23.20;;
6434;SDS011;3250;42.694;23.278;2023-02-28T08:00:50;48.97;;;24.10;;
6434;SDS011;3250;42.694;23.278;2023-02-28T08:03:16;56.20;;;23.47;;
6434;SDS011;3250;42.694;23.278;2023-02-28T08:05:43;46.77;;;21.60;;
6434;SDS011;3250;42.694;23.278;2023-02-28T08:08:08;45.37;;;20.53;;
6434;SDS011;3250;42.694;23.278;2023-02-28T08:10:34;53.93;;;23.43;;
6434;SDS011;3250;42.694;23.278;2023-02-28T08:13:00;50.17;;;23.53;;
6434;SDS011;3250;42.694;23.278;2023-02-28T08:15:25;46.20;;;24.13;;
6434;SDS011;3250;42.694;23.278;2023-02-28T08:17:51;51.07;;;23.43;;
6434;SDS011;3250;42.694;23.278;2023-02-28T08:20:16;45.97;;;22.00;;
6434;SDS011;3250;42.694;23.278;2023-02-28T08:22:42;45.00;;;21.87;;
6434;SDS011;3250;42.694;23.278;2023-02-28T08:25:07;44.50;;;22.70;;
6434;SDS011;3250;42.694;23.278;2023-02-28T08:27:34;43.53;;;20.57;;
6434;SDS011;3250;42.694;23.278;2023-02-28T08:30:00;38.80;;;19.07;;
6434;SDS011;3250;42.694;23.278;2023-02-28T08:32:25;48.43;;;22.63;;
6434;SDS011;3250;42.694;23.278;2023-02-28T08:34:50;47.70;;;23.20;;
6434;SDS011;3250;42.694;23.278;2023-02-28T08:37:16;49.03;;;22.43;;
6434;SDS011;3250;42.694;23.278;2023-02-28T08:39:41;44.73;;;22.10;;
6434;SDS011;3250;42.694;23.278;2023-02-28T08:42:07;40.77;;;20.40;;
6434;SDS011;3250;42.694;23.278;2023-02-28T08:44:32;51.60;;;23.37;;
6434;SDS011;3250;42.694;23.278;2023-02-28T08:46:58;43.90;;;21.57;;
6434;SDS011;3250;42.694;23.278;2023-02-28T08:49:23;42.80;;;21.80;;
6434;SDS011;3250;42.694;23.278;2023-02-28T08:51:49;64.40;;;31.23;;
6434;SDS011;3250;42.694;23.278;2023-02-28T08:54:14;56.13;;;28.93;;
6434;SDS011;3250;42.694;23.278;2023-02-28T08:56:44;49.00;;;26.27;;
6434;SDS011;3250;42.694;23.278;2023-02-28T08:59:12;60.27;;;24.77;;
6434;SDS011;3250;42.694;23.278;2023-02-28T09:01:38;50.70;;;22.47;;
6434;SDS011;3250;42.694;23.278;2023-02-28T09:04:06;53.43;;;23.60;;
6434;SDS011;3250;42.694;23.278;2023-02-28T09:06:33;52.93;;;23.90;;
6434;SDS011;3250;42.694;23.278;2023-02-28T09:08:59;47.50;;;22.33;;
6434;SDS011;3250;42.694;23.278;2023-02-28T09:11:26;44.13;;;21.93;;
6434;SDS011;3250;42.694;23.278;2023-02-28T09:13:52;49.80;;;21.77;;
6434;SDS011;3250;42.694;23.278;2023-02-28T09:16:20;45.30;;;20.27;;
6434;SDS011;3250;42.694;23.278;2023-02-28T09:18:45;39.73;;;20.47;;
6434;SDS011;3250;42.694;23.278;2023-02-28T09:21:12;45.83;;;19.47;;
6434;SDS011;3250;42.694;23.278;2023-02-28T09:23:41;40.83;;;18.70;;
6434;SDS011;3250;42.694;23.278;2023-02-28T09:26:21;36.23;;;19.57;;
6434;SDS011;3250;42.694;23.278;2023-02-28T09:28:48;44.83;;;20.77;;
6434;SDS011;3250;42.694;23.278;2023-02-28T09:31:15;45.47;;;23.83;;
6434;SDS011;3250;42.694;23.278;2023-02-28T09:33:45;53.57;;;25.73;;
6434;SDS011;3250;42.694;23.278;2023-02-28T09:36:11;46.07;;;25.30;;
6434;SDS011;3250;42.694;23.278;2023-02-28T09:38:37;50.73;;;24.03;;
6434;SDS011;3250;42.694;23.278;2023-02-28T09:41:03;50.77;;;24.23;;
6434;SDS011;3250;42.694;23.278;2023-02-28T09:43:37;48.17;;;23.93;;
6434;SDS011;3250;42.694;23.278;2023-02-28T09:49:17;39.17;;;19.77;;
6434;SDS011;3250;42.694;23.278;2023-02-28T09:51:47;41.37;;;21.07;;
6434;SDS011;3250;42.694;23.278;2023-02-28T09:54:24;40.17;;;19.67;;
6434;SDS011;3250;42.694;23.278;2023-02-28T09:56:53;45.43;;;21.17;;
6434;SDS011;3250;42.694;23.278;2023-02-28T10:08:28;44.67;;;22.70;;
6434;SDS011;3250;42.694;23.278;2023-02-28T10:11:00;48.37;;;24.17;;
6434;SDS011;3250;42.694;23.278;2023-02-28T10:16:21;60.13;;;28.90;;
6434;SDS011;3250;42.694;23.278;2023-02-28T10:18:52;43.63;;;22.33;;
6434;SDS011;3250;42.694;23.278;2023-02-28T10:21:28;47.50;;;20.93;;
6434;SDS011;3250;42.694;23.278;2023-02-28T10:24:03;36.93;;;19.20;;
6434;SDS011;3250;42.694;23.278;2023-02-28T10:26:37;34.07;;;18.13;;
6434;SDS011;3250;42.694;23.278;2023-02-28T10:29:03;39.13;;;17.90;;
6434;SDS011;3250;42.694;23.278;2023-02-28T10:31:29;35.50;;;17.43;;
6434;SDS011;3250;42.694;23.278;2023-02-28T10:33:54;38.20;;;17.87;;
6434;SDS011;3250;42.694;23.278;2023-02-28T10:36:20;27.97;;;12.43;;
6434;SDS011;3250;42.694;23.278;2023-02-28T10:38:47;38.13;;;11.03;;
6434;SDS011;3250;42.694;23.278;2023-02-28T10:41:14;20.43;;;8.97;;
6434;SDS011;3250;42.694;23.278;2023-02-28T10:43:53;17.37;;;8.73;;
6434;SDS011;3250;42.694;23.278;2023-02-28T10:46:39;23.87;;;9.97;;
6434;SDS011;3250;42.694;23.278;2023-02-28T10:49:11;14.03;;;8.67;;
6434;SDS011;3250;42.694;23.278;2023-02-28T10:51:40;19.63;;;8.40;;
6434;SDS011;3250;42.694;23.278;2023-02-28T10:54:14;20.43;;;9.70;;
6434;SDS011;3250;42.694;23.278;2023-02-28T10:56:42;19.87;;;8.97;;
6434;SDS011;3250;42.694;23.278;2023-02-28T11:01:42;22.27;;;9.53;;
6434;SDS011;3250;42.694;23.278;2023-02-28T11:06:44;14.23;;;7.40;;
6434;SDS011;3250;42.694;23.278;2023-02-28T11:11:52;20.30;;;9.50;;
6434;SDS011;3250;42.694;23.278;2023-02-28T11:14:21;19.30;;;7.50;;
6434;SDS011;3250;42.694;23.278;2023-02-28T11:16:50;16.37;;;7.47;;
6434;SDS011;3250;42.694;23.278;2023-02-28T11:19:24;20.43;;;7.80;;
6434;SDS011;3250;42.694;23.278;2023-02-28T11:22:00;20.20;;;9.23;;
6434;SDS011;3250;42.694;23.278;2023-02-28T11:24:30;19.20;;;7.47;;
6434;SDS011;3250;42.694;23.278;2023-02-28T11:26:56;17.57;;;7.83;;
6434;SDS011;3250;42.694;23.278;2023-02-28T11:29:23;27.00;;;8.37;;
6434;SDS011;3250;42.694;23.278;2023-02-28T11:34:43;17.03;;;8.30;;
6434;SDS011;3250;42.694;23.278;2023-02-28T11:37:14;23.87;;;8.53;;
6434;SDS011;3250;42.694;23.278;2023-02-28T11:39:43;21.07;;;8.43;;
6434;SDS011;3250;42.694;23.278;2023-02-28T11:57:54;22.87;;;9.67;;
6434;SDS011;3250;42.694;23.278;2023-02-28T12:22:47;20.07;;;8.10;;
6434;SDS011;3250;42.694;23.278;2023-02-28T12:28:07;23.40;;;8.47;;
6434;SDS011;3250;42.694;23.278;2023-02-28T12:30:36;18.20;;;8.67;;
6434;SDS011;3250;42.694;23.278;2023-02-28T12:33:14;25.93;;;8.23;;
6434;SDS011;3250;42.694;23.278;2023-02-28T12:35:47;17.20;;;7.73;;
6434;SDS011;3250;42.694;23.278;2023-02-28T12:38:20;19.27;;;8.70;;
6434;SDS011;3250;42.694;23.278;2023-02-28T12:40:56;19.47;;;8.43;;
6434;SDS011;3250;42.694;23.278;2023-02-28T12:43:34;19.37;;;8.50;;
6434;SDS011;3250;42.694;23.278;2023-02-28T12:46:14;23.10;;;7.57;;
6434;SDS011;3250;42.694;23.278;2023-02-28T12:48:48;27.23;;;7.93;;
6434;SDS011;3250;42.694;23.278;2023-02-28T12:51:24;17.00;;;7.53;;
6434;SDS011;3250;42.694;23.278;2023-02-28T13:09:56;13.83;;;7.13;;
6434;SDS011;3250;42.694;23.278;2023-02-28T13:12:24;24.53;;;7.83;;
6434;SDS011;3250;42.694;23.278;2023-02-28T13:14:51;20.53;;;6.93;;
6434;SDS011;3250;42.694;23.278;2023-02-28T13:17:36;20.53;;;7.37;;
6434;SDS011;3250;42.694;23.278;2023-02-28T13:20:03;18.80;;;6.67;;
6434;SDS011;3250;42.694;23.278;2023-02-28T13:22:42;17.13;;;7.23;;
6434;SDS011;3250;42.694;23.278;2023-02-28T13:27:46;19.27;;;6.50;;
6434;SDS011;3250;42.694;23.278;2023-02-28T13:36:09;21.83;;;6.53;;
6434;SDS011;3250;42.694;23.278;2023-02-28T13:38:45;20.30;;;7.87;;
6434;SDS011;3250;42.694;23.278;2023-02-28T13:44:12;23.63;;;7.70;;
6434;SDS011;3250;42.694;23.278;2023-02-28T13:51:55;20.10;;;8.13;;
6434;SDS011;3250;42.694;23.278;2023-02-28T13:57:27;17.27;;;7.17;;
6434;SDS011;3250;42.694;23.278;2023-02-28T14:06:16;22.90;;;7.50;;
6434;SDS011;3250;42.694;23.278;2023-02-28T14:11:37;22.43;;;7.20;;
6434;SDS011;3250;42.694;23.278;2023-02-28T14:14:06;23.00;;;6.90;;
6434;SDS011;3250;42.694;23.278;2023-02-28T14:16:40;19.00;;;6.20;;
6434;SDS011;3250;42.694;23.278;2023-02-28T14:19:26;17.00;;;7.10;;
6434;SDS011;3250;42.694;23.278;2023-02-28T14:32:47;14.47;;;6.47;;
6434;SDS011;3250;42.694;23.278;2023-02-28T14:38:17;17.13;;;7.20;;
6434;SDS011;3250;42.694;23.278;2023-02-28T14:40:46;21.23;;;7.60;;
6434;SDS011;3250;42.694;23.278;2023-02-28T14:43:32;16.33;;;6.97;;
6434;SDS011;3250;42.694;23.278;2023-02-28T14:45:59;19.40;;;7.50;;
6434;SDS011;3250;42.694;23.278;2023-02-28T14:48:26;17.07;;;7.20;;
6434;SDS011;3250;42.694;23.278;2023-02-28T14:50:53;16.67;;;7.80;;
6434;SDS011;3250;42.694;23.278;2023-02-28T14:53:22;21.13;;;6.30;;
6434;SDS011;3250;42.694;23.278;2023-02-28T14:55:50;20.53;;;6.60;;
6434;SDS011;3250;42.694;23.278;2023-02-28T14:58:27;19.23;;;8.03;;
6434;SDS011;3250;42.694;23.278;2023-02-28T15:00:56;21.67;;;8.00;;
6434;SDS011;3250;42.694;23.278;2023-02-28T15:03:38;14.10;;;7.37;;
6434;SDS011;3250;42.694;23.278;2023-02-28T15:06:11;24.40;;;7.00;;
6434;SDS011;3250;42.694;23.278;2023-02-28T15:08:39;12.23;;;6.20;;
6434;SDS011;3250;42.694;23.278;2023-02-28T15:11:05;17.43;;;6.70;;
6434;SDS011;3250;42.694;23.278;2023-02-28T15:16:16;17.77;;;7.57;;
6434;SDS011;3250;42.694;23.278;2023-02-28T15:21:56;18.23;;;8.25;;
6434;SDS011;3250;42.694;23.278;2023-02-28T15:26:49;13.32;;;7.30;;
6434;SDS011;3250;42.694;23.278;2023-02-28T15:29:22;18.35;;;8.30;;
6434;SDS011;3250;42.694;23.278;2023-02-28T15:31:57;18.83;;;8.23;;
6434;SDS011;3250;42.694;23.278;2023-02-28T15:36:55;22.58;;;8.27;;
6434;SDS011;3250;42.694;23.278;2023-02-28T15:39:21;18.53;;;8.00;;
6434;SDS011;3250;42.694;23.278;2023-02-28T15:41:54;15.13;;;7.03;;
6434;SDS011;3250;42.694;23.278;2023-02-28T15:44:35;18.20;;;7.97;;
6434;SDS011;3250;42.694;23.278;2023-02-28T15:47:02;18.87;;;8.00;;
6434;SDS011;3250;42.694;23.278;2023-02-28T15:49:37;17.85;;;7.75;;
6434;SDS011;3250;42.694;23.278;2023-02-28T15:52:12;16.73;;;8.25;;
6434;SDS011;3250;42.694;23.278;2023-02-28T15:54:41;15.30;;;7.50;;
6434;SDS011;3250;42.694;23.278;2023-02-28T15:57:13;14.93;;;7.30;;
6434;SDS011;3250;42.694;23.278;2023-02-28T15:59:45;14.67;;;7.73;;
6434;SDS011;3250;42.694;23.278;2023-02-28T16:02:20;16.27;;;7.07;;
6434;SDS011;3250;42.694;23.278;2023-02-28T16:04:57;10.98;;;6.40;;
6434;SDS011;3250;42.694;23.278;2023-02-28T16:07:33;12.88;;;7.20;;
6434;SDS011;3250;42.694;23.278;2023-02-28T16:10:03;15.32;;;8.38;;
6434;SDS011;3250;42.694;23.278;2023-02-28T16:12:30;15.67;;;9.27;;
6434;SDS011;3250;42.694;23.278;2023-02-28T16:14:58;19.17;;;8.55;;
6434;SDS011;3250;42.694;23.278;2023-02-28T16:17:28;14.40;;;8.60;;
6434;SDS011;3250;42.694;23.278;2023-02-28T16:19:58;18.33;;;11.65;;
6434;SDS011;3250;42.694;23.278;2023-02-28T16:22:24;18.08;;;11.02;;
6434;SDS011;3250;42.694;23.278;2023-02-28T16:24:51;18.45;;;10.73;;
6434;SDS011;3250;42.694;23.278;2023-02-28T16:29:41;15.50;;;9.43;;
6434;SDS011;3250;42.694;23.278;2023-02-28T16:32:07;12.07;;;8.13;;
6434;SDS011;3250;42.694;23.278;2023-02-28T16:34:33;14.30;;;8.77;;
6434;SDS011;3250;42.694;23.278;2023-02-28T16:36:58;14.40;;;8.23;;
6434;SDS011;3250;42.694;23.278;2023-02-28T16:39:24;10.68;;;6.18;;
6434;SDS011;3250;42.694;23.278;2023-02-28T16:41:49;14.27;;;7.03;;
6434;SDS011;3250;42.694;23.278;2023-02-28T16:44:29;13.48;;;7.15;;
6434;SDS011;3250;42.694;23.278;2023-02-28T16:46:57;10.25;;;6.22;;
6434;SDS011;3250;42.694;23.278;2023-02-28T16:49:25;9.45;;;6.13;;
6434;SDS011;3250;42.694;23.278;2023-02-28T16:51:50;13.13;;;6.35;;
6434;SDS011;3250;42.694;23.278;2023-02-28T16:54:15;11.05;;;6.47;;
6434;SDS011;3250;42.694;23.278;2023-02-28T16:56:43;13.05;;;6.68;;
6434;SDS011;3250;42.694;23.278;2023-02-28T16:59:10;10.10;;;6.30;;
6434;SDS011;3250;42.694;23.278;2023-02-28T17:01:36;9.90;;;6.97;;
6434;SDS011;3250;42.694;23.278;2023-02-28T17:04:01;9.33;;;5.40;;
6434;SDS011;3250;42.694;23.278;2023-02-28T17:06:30;8.90;;;6.07;;
6434;SDS011;3250;42.694;23.278;2023-02-28T17:08:56;10.60;;;5.75;;
6434;SDS011;3250;42.694;23.278;2023-02-28T17:11:23;14.35;;;6.13;;
6434;SDS011;3250;42.694;23.278;2023-02-28T17:13:49;9.50;;;5.43;;
6434;SDS011;3250;42.694;23.278;2023-02-28T17:16:17;10.60;;;5.20;;
6434;SDS011;3250;42.694;23.278;2023-02-28T17:18:48;11.10;;;6.05;;
6434;SDS011;3250;42.694;23.278;2023-02-28T17:21:17;10.48;;;5.55;;
6434;SDS011;3250;42.694;23.278;2023-02-28T17:23:43;10.63;;;6.03;;
6434;SDS011;3250;42.694;23.278;2023-02-28T17:26:18;8.07;;;5.70;;
6434;SDS011;3250;42.694;23.278;2023-02-28T17:28:46;13.23;;;5.95;;
6434;SDS011;3250;42.694;23.278;2023-02-28T17:31:12;16.38;;;5.60;;
6434;SDS011;3250;42.694;23.278;2023-02-28T17:33:38;9.47;;;5.17;;
6434;SDS011;3250;42.694;23.278;2023-02-28T17:36:03;8.90;;;5.05;;
6434;SDS011;3250;42.694;23.278;2023-02-28T17:38:29;7.05;;;4.63;;
6434;SDS011;3250;42.694;23.278;2023-02-28T17:40:55;5.60;;;3.80;;
6434;SDS011;3250;42.694;23.278;2023-02-28T17:43:25;8.77;;;4.43;;
6434;SDS011;3250;42.694;23.278;2023-02-28T17:45:51;6.68;;;4.00;;
6434;SDS011;3250;42.694;23.278;2023-02-28T17:48:18;7.30;;;4.07;;
6434;SDS011;3250;42.694;23.278;2023-02-28T17:50:43;8.07;;;4.57;;